createdAt,value
2019-05-06T00:01:33.987Z,6.23
2019-05-06T00:04:04.624Z,6.62
2019-05-06T00:06:34.561Z,6.65
2019-05-06T00:09:04.086Z,6.71
2019-05-06T00:11:34.673Z,6.73
2019-05-06T00:14:03.957Z,6.67
2019-05-06T00:16:34.758Z,6.65
2019-05-06T00:19:04.774Z,6.64
2019-05-06T00:21:35.296Z,6.66
2019-05-06T00:24:04.033Z,6.67
2019-05-06T00:26:57.384Z,6.59
2019-05-06T00:29:27.197Z,6.52
2019-05-06T00:31:55.663Z,6.54
2019-05-06T00:34:24.643Z,6.55
2019-05-06T00:36:54.513Z,6.54
2019-05-06T00:39:44.283Z,6.47
2019-05-06T00:42:36.088Z,6.45
2019-05-06T00:45:05.621Z,6.47
2019-05-06T00:47:34.185Z,6.46
2019-05-06T00:50:04.220Z,6.50
2019-05-06T00:52:33.967Z,6.46
2019-05-06T00:55:04.171Z,6.36
2019-05-06T00:57:44.876Z,6.35
2019-05-06T01:00:18.528Z,6.35
2019-05-06T01:02:47.012Z,6.30
2019-05-06T01:05:15.541Z,6.30
2019-05-06T01:07:44.294Z,6.30
2019-05-06T01:10:14.252Z,6.32
2019-05-06T01:12:46.338Z,6.29
2019-05-06T01:15:17.439Z,6.26
2019-05-06T01:17:46.203Z,6.28
2019-05-06T01:20:14.741Z,6.24
2019-05-06T01:22:43.749Z,6.18
2019-05-06T01:25:14.191Z,6.15
2019-05-06T01:27:44.443Z,6.18
2019-05-06T01:30:13.746Z,6.24
2019-05-06T01:32:43.577Z,6.26
2019-05-06T01:35:13.997Z,6.23
2019-05-06T01:37:44.309Z,6.16
2019-05-06T01:40:30.567Z,6.17
2019-05-06T01:43:03.921Z,6.15
2019-05-06T01:45:32.391Z,6.13
2019-05-06T01:48:00.869Z,6.09
2019-05-06T01:50:29.333Z,6.05
2019-05-06T01:52:58.025Z,6.01
2019-05-06T01:55:26.813Z,5.99
2019-05-06T01:57:55.301Z,6.00
2019-05-06T02:00:24.270Z,5.98
2019-05-06T02:02:54.601Z,6.01
2019-05-06T02:05:24.259Z,6.03
2019-05-06T02:07:54.878Z,5.98
2019-05-06T02:10:23.829Z,5.89
2019-05-06T02:12:54.066Z,5.87
2019-05-06T02:15:23.963Z,5.86
2019-05-06T02:17:54.979Z,5.92
2019-05-06T02:20:24.584Z,5.96
2019-05-06T02:23:04.203Z,5.91
2019-05-06T02:25:38.210Z,5.88
2019-05-06T02:28:06.684Z,5.78
2019-05-06T02:30:54.527Z,5.77
2019-05-06T02:33:28.961Z,5.79
2019-05-06T02:36:01.311Z,5.76
2019-05-06T02:38:39.273Z,5.71
2019-05-06T02:41:03.680Z,5.65
2019-05-06T02:43:34.504Z,5.71
2019-05-06T02:46:04.245Z,5.70
2019-05-06T02:48:55.612Z,5.67
2019-05-06T02:51:26.518Z,5.66
2019-05-06T02:53:55.284Z,5.64
2019-05-06T02:56:24.113Z,5.65
2019-05-06T02:58:53.625Z,5.59
2019-05-06T03:01:23.335Z,5.48
2019-05-06T03:03:53.651Z,5.49
2019-05-06T03:06:23.839Z,5.50
2019-05-06T03:08:54.195Z,5.47
2019-05-06T03:11:23.991Z,5.47
2019-05-06T03:13:53.889Z,5.48
2019-05-06T03:16:23.752Z,5.47
2019-05-06T03:18:53.311Z,5.43
2019-05-06T03:21:44.805Z,5.40
2019-05-06T03:24:29.375Z,5.37
2019-05-06T03:26:57.869Z,5.37
2019-05-06T03:29:26.331Z,5.44
2019-05-06T03:31:56.470Z,5.42
2019-05-06T03:34:49.301Z,5.38
2019-05-06T03:36:56.380Z,5.40
2019-05-06T03:39:25.266Z,5.47
2019-05-06T03:41:54.360Z,5.48
2019-05-06T03:44:23.977Z,5.42
2019-05-06T03:47:15.041Z,5.46
2019-05-06T03:49:49.791Z,5.47
2019-05-06T03:52:16.261Z,5.48
2019-05-06T03:54:45.885Z,5.50
2019-05-06T03:57:14.538Z,5.44
2019-05-06T03:59:43.677Z,5.48
2019-05-06T04:02:13.354Z,5.47
2019-05-06T04:04:44.034Z,5.49
2019-05-06T04:07:13.869Z,5.50
2019-05-06T04:09:44.200Z,5.53
2019-05-06T04:12:13.063Z,5.53
2019-05-06T04:14:43.343Z,5.54
2019-05-06T04:17:24.007Z,5.51
2019-05-06T04:19:56.917Z,5.58
2019-05-06T04:22:37.925Z,5.60
2019-05-06T04:25:14.288Z,5.62
2019-05-06T04:28:04.629Z,5.65
2019-05-06T04:30:33.496Z,5.64
2019-05-06T04:33:03.257Z,5.69
2019-05-06T04:35:33.823Z,5.67
2019-05-06T04:38:03.282Z,5.71
2019-05-06T04:40:33.083Z,5.78
2019-05-06T04:43:03.540Z,5.82
2019-05-06T04:45:33.755Z,5.88
2019-05-06T04:48:03.503Z,5.89
2019-05-06T04:50:33.099Z,5.96
2019-05-06T04:53:05.655Z,6.02
2019-05-06T04:55:34.789Z,6.12
2019-05-06T04:58:04.453Z,6.26
2019-05-06T05:00:33.306Z,6.29
2019-05-06T05:03:03.009Z,6.31
2019-05-06T05:05:33.158Z,6.38
2019-05-06T05:08:02.606Z,6.41
2019-05-06T05:11:05.355Z,6.40
2019-05-06T05:13:53.217Z,6.42
2019-05-06T05:16:45.993Z,6.51
2019-05-06T05:19:14.738Z,6.46
2019-05-06T05:21:43.224Z,6.53
2019-05-06T05:24:12.058Z,6.49
2019-05-06T05:26:43.338Z,6.47
2019-05-06T05:29:12.350Z,6.45
2019-05-06T05:31:40.900Z,6.44
2019-05-06T05:34:09.382Z,6.49
2019-05-06T05:36:37.842Z,6.52
2019-05-06T05:39:07.420Z,6.54
2019-05-06T05:41:35.927Z,6.63
2019-05-06T05:44:11.907Z,6.73
2019-05-06T05:46:40.026Z,6.81
2019-05-06T05:49:18.396Z,6.90
2019-05-06T05:51:45.802Z,6.91
2019-05-06T05:54:14.270Z,6.92
2019-05-06T05:56:43.179Z,6.90
2019-05-06T05:59:12.265Z,6.93
2019-05-06T06:01:43.279Z,6.97
2019-05-06T06:04:12.871Z,6.99
2019-05-06T06:06:42.350Z,7.04
2019-05-06T06:09:12.686Z,7.04
2019-05-06T06:11:53.155Z,7.08
2019-05-06T06:14:53.384Z,7.13
2019-05-06T06:17:33.054Z,7.15
2019-05-06T06:20:04.083Z,7.09
2019-05-06T06:22:33.088Z,7.13
2019-05-06T06:25:04.088Z,7.14
2019-05-06T06:27:48.227Z,7.15
2019-05-06T06:30:16.721Z,7.21
2019-05-06T06:32:45.202Z,7.21
2019-05-06T06:35:25.139Z,7.27
2019-05-06T06:38:08.879Z,7.27
2019-05-06T06:40:37.665Z,7.22
2019-05-06T06:43:12.307Z,7.25
2019-05-06T06:45:42.190Z,7.28
2019-05-06T06:48:12.373Z,7.31
2019-05-06T06:50:42.632Z,7.35
2019-05-06T06:53:12.310Z,7.45
2019-05-06T06:55:42.726Z,7.54
2019-05-06T06:58:29.189Z,7.55
2019-05-06T07:01:17.188Z,7.50
2019-05-06T07:03:53.369Z,7.55
2019-05-06T07:06:36.899Z,7.52
2019-05-06T07:09:06.233Z,7.36
2019-05-06T07:11:34.711Z,7.40
2019-05-06T07:14:03.176Z,7.49
2019-05-06T07:16:32.776Z,7.56
2019-05-06T07:19:03.127Z,7.61
2019-05-06T07:21:39.434Z,7.66
2019-05-06T07:24:08.244Z,7.74
2019-05-06T07:26:42.730Z,7.80
2019-05-06T07:29:17.245Z,7.84
2019-05-06T07:31:42.647Z,7.92
2019-05-06T07:34:11.982Z,7.97
2019-05-06T07:36:42.964Z,8.13
2019-05-06T07:39:14.742Z,8.40
2019-05-06T07:41:49.322Z,8.51
2019-05-06T07:44:42.892Z,8.50
2019-05-06T07:47:23.766Z,8.48
2019-05-06T07:49:53.120Z,8.67
2019-05-06T07:52:23.096Z,8.79
2019-05-06T07:54:53.372Z,8.85
2019-05-06T07:57:22.172Z,8.79
2019-05-06T07:59:52.533Z,8.70
2019-05-06T08:02:22.978Z,8.58
2019-05-06T08:04:52.946Z,8.50
2019-05-06T08:07:22.313Z,8.45
2019-05-06T08:09:52.883Z,8.47
2019-05-06T08:12:22.312Z,8.49
2019-05-06T08:14:52.362Z,8.42
2019-05-06T08:17:34.127Z,8.37
2019-05-06T08:20:03.188Z,8.32
2019-05-06T08:22:52.976Z,8.22
2019-05-06T08:25:22.950Z,8.24
2019-05-06T08:27:53.185Z,8.22
2019-05-06T08:30:23.117Z,8.18
2019-05-06T08:32:52.846Z,8.15
2019-05-06T08:35:22.731Z,8.15
2019-05-06T08:37:53.109Z,8.20
2019-05-06T08:40:23.032Z,8.30
2019-05-06T08:42:53.198Z,8.40
2019-05-06T08:45:22.094Z,8.48
2019-05-06T08:47:52.389Z,8.61
2019-05-06T08:50:27.421Z,8.69
2019-05-06T08:53:05.834Z,8.77
2019-05-06T08:55:36.937Z,8.85
2019-05-06T08:58:05.436Z,8.79
2019-05-06T09:00:36.833Z,8.84
2019-05-06T09:03:05.343Z,8.85
2019-05-06T09:05:33.760Z,8.85
2019-05-06T09:08:03.588Z,8.82
2019-05-06T09:10:32.648Z,8.83
2019-05-06T09:13:02.044Z,8.90
2019-05-06T09:15:32.736Z,8.95
2019-05-06T09:18:02.973Z,8.93
2019-05-06T09:20:32.626Z,8.99
2019-05-06T09:23:04.489Z,9.08
2019-05-06T09:25:32.282Z,9.09
2019-05-06T09:28:15.969Z,9.09
2019-05-06T09:30:48.032Z,9.04
2019-05-06T09:33:19.116Z,8.80
2019-05-06T09:35:47.599Z,8.59
2019-05-06T09:38:16.633Z,8.43
2019-05-06T09:40:45.723Z,8.32
2019-05-06T09:43:14.205Z,8.16
2019-05-06T09:45:42.757Z,8.09
2019-05-06T09:48:17.518Z,8.10
2019-05-06T09:50:47.397Z,8.16
2019-05-06T09:53:20.087Z,8.21
2019-05-06T09:56:06.388Z,8.28
2019-05-06T09:58:37.271Z,8.37
2019-05-06T10:01:05.979Z,8.43
2019-05-06T10:03:34.463Z,8.49
2019-05-06T10:06:02.932Z,8.54
2019-05-06T10:08:32.286Z,8.50
2019-05-06T10:11:02.903Z,8.54
2019-05-06T10:13:32.715Z,8.52
2019-05-06T10:16:03.027Z,8.47
2019-05-06T10:18:31.846Z,8.43
2019-05-06T10:21:00.767Z,8.38
2019-05-06T10:23:29.264Z,7.05
2019-05-06T10:25:58.055Z,8.53
2019-05-06T10:28:35.375Z,8.62
2019-05-06T10:31:05.942Z,8.71
2019-05-06T10:33:34.426Z,8.71
2019-05-06T10:36:03.977Z,8.72
2019-05-06T10:38:55.591Z,8.83
2019-05-06T10:41:27.697Z,8.96
2019-05-06T10:44:22.576Z,9.06
2019-05-06T10:46:52.728Z,9.26
2019-05-06T10:49:22.559Z,9.36
2019-05-06T10:51:59.389Z,9.45
2019-05-06T10:54:27.853Z,9.62
2019-05-06T10:57:02.285Z,9.62
2019-05-06T10:59:32.643Z,9.50
2019-05-06T11:02:08.164Z,9.50
2019-05-06T11:04:36.625Z,9.49
2019-05-06T11:07:05.085Z,9.46
2019-05-06T11:09:33.850Z,9.35
2019-05-06T11:12:03.318Z,9.15
2019-05-06T11:14:32.888Z,8.83
2019-05-06T11:17:04.922Z,8.73
2019-05-06T11:19:33.062Z,8.80
2019-05-06T11:22:03.634Z,8.98
2019-05-06T11:24:32.680Z,9.07
2019-05-06T11:27:03.380Z,9.00
2019-05-06T11:29:33.915Z,8.88
2019-05-06T11:32:23.660Z,8.74
2019-05-06T11:34:57.978Z,8.72
2019-05-06T11:37:50.205Z,8.68
2019-05-06T11:40:16.955Z,8.64
2019-05-06T11:42:45.736Z,8.67
2019-05-06T11:45:14.213Z,8.86
2019-05-06T11:47:42.798Z,9.11
2019-05-06T11:50:12.918Z,9.37
2019-05-06T11:52:43.327Z,9.63
2019-05-06T11:55:16.872Z,9.92
2019-05-06T11:57:44.717Z,10.00
2019-05-06T12:00:17.202Z,9.92
2019-05-06T12:02:48.616Z,9.83
2019-05-06T12:05:15.943Z,9.73
2019-05-06T12:08:00.425Z,9.58
2019-05-06T12:10:14.604Z,9.41
2019-05-06T12:12:43.324Z,9.30
2019-05-06T12:15:12.609Z,9.22
2019-05-06T12:17:42.135Z,9.16
2019-05-06T12:20:13.083Z,9.13
2019-05-06T12:22:42.333Z,9.13
2019-05-06T12:25:14.693Z,9.22
2019-05-06T12:27:44.377Z,9.36
2019-05-06T12:30:14.029Z,9.43
2019-05-06T12:32:48.725Z,9.43
2019-05-06T12:35:17.182Z,9.46
2019-05-06T12:37:47.371Z,9.56
2019-05-06T12:40:15.839Z,9.55
2019-05-06T12:42:53.525Z,9.52
2019-05-06T12:45:34.728Z,9.50
2019-05-06T12:48:05.590Z,9.56
2019-05-06T12:50:34.035Z,9.64
2019-05-06T12:53:02.498Z,9.68
2019-05-06T12:55:33.457Z,9.55
2019-05-06T12:58:02.995Z,9.64
2019-05-06T13:00:33.169Z,9.64
2019-05-06T13:03:02.285Z,9.65
2019-05-06T13:05:31.949Z,9.69
2019-05-06T13:08:05.505Z,9.66
2019-05-06T13:10:33.501Z,9.69
2019-05-06T13:13:05.200Z,9.71
2019-05-06T13:15:33.991Z,9.72
2019-05-06T13:18:07.040Z,9.80
2019-05-06T13:20:34.295Z,9.88
2019-05-06T13:23:18.905Z,9.89
2019-05-06T13:25:45.156Z,9.78
2019-05-06T13:28:12.939Z,9.79
2019-05-06T13:30:43.339Z,9.81
2019-05-06T13:33:18.845Z,9.76
2019-05-06T13:35:47.405Z,9.83
2019-05-06T13:38:16.116Z,9.92
2019-05-06T13:40:53.849Z,9.92
2019-05-06T13:43:39.754Z,10.02
2019-05-06T13:46:28.032Z,10.06
2019-05-06T13:49:14.072Z,10.09
2019-05-06T13:51:46.891Z,10.21
2019-05-06T13:54:16.148Z,10.28
2019-05-06T13:56:44.670Z,10.26
2019-05-06T13:59:13.391Z,10.18
2019-05-06T14:02:06.127Z,10.10
2019-05-06T14:04:32.649Z,10.12
2019-05-06T14:07:03.419Z,10.17
2019-05-06T14:09:37.236Z,10.16
2019-05-06T14:12:02.640Z,10.17
2019-05-06T14:14:32.235Z,10.16
2019-05-06T14:17:00.838Z,10.01
2019-05-06T14:19:29.340Z,9.96
2019-05-06T14:21:57.828Z,9.99
2019-05-06T14:24:26.726Z,10.02
2019-05-06T14:26:59.658Z,9.96
2019-05-06T14:29:33.121Z,10.02
2019-05-06T14:32:01.969Z,9.91
2019-05-06T14:34:32.494Z,9.87
2019-05-06T14:37:00.707Z,9.80
2019-05-06T14:39:49.112Z,9.81
2019-05-06T14:42:04.319Z,9.87
2019-05-06T14:44:32.946Z,9.95
2019-05-06T14:47:06.087Z,9.97
2019-05-06T14:49:34.800Z,9.91
2019-05-06T14:52:03.266Z,9.94
2019-05-06T14:54:33.088Z,9.97
2019-05-06T14:57:12.366Z,10.03
2019-05-06T14:59:42.182Z,10.03
2019-05-06T15:02:13.083Z,10.06
2019-05-06T15:04:43.483Z,10.05
2019-05-06T15:07:12.676Z,10.20
2019-05-06T15:09:55.695Z,10.29
2019-05-06T15:12:13.057Z,10.25
2019-05-06T15:14:42.539Z,10.21
2019-05-06T15:17:11.202Z,10.23
2019-05-06T15:19:39.938Z,10.37
2019-05-06T15:22:08.427Z,10.24
2019-05-06T15:24:36.930Z,10.06
2019-05-06T15:27:05.674Z,10.02
2019-05-06T15:29:34.108Z,9.90
2019-05-06T15:32:22.194Z,9.91
2019-05-06T15:35:12.870Z,9.98
2019-05-06T15:37:49.070Z,10.01
2019-05-06T15:40:31.130Z,10.03
2019-05-06T15:42:47.782Z,10.19
2019-05-06T15:45:16.238Z,10.29
2019-05-06T15:47:45.200Z,10.22
2019-05-06T15:50:14.913Z,10.08
2019-05-06T15:52:43.812Z,9.89
2019-05-06T15:55:12.404Z,9.81
2019-05-06T15:57:43.265Z,9.69
2019-05-06T16:00:13.021Z,9.59
2019-05-06T16:02:42.041Z,9.52
2019-05-06T16:05:14.061Z,9.54
2019-05-06T16:07:43.350Z,9.56
2019-05-06T16:10:13.310Z,9.50
2019-05-06T16:12:43.876Z,9.45
2019-05-06T16:15:12.949Z,9.45
2019-05-06T16:17:42.673Z,9.44
2019-05-06T16:20:12.936Z,9.43
2019-05-06T16:22:44.400Z,9.40
2019-05-06T16:25:13.881Z,9.41
2019-05-06T16:27:44.128Z,9.36
2019-05-06T16:30:14.604Z,9.30
2019-05-06T16:32:43.426Z,9.27
2019-05-06T16:35:14.143Z,9.22
2019-05-06T16:37:42.216Z,9.16
2019-05-06T16:40:12.340Z,9.18
2019-05-06T16:42:42.564Z,9.24
2019-05-06T16:45:12.550Z,9.31
2019-05-06T16:47:44.512Z,9.34
2019-05-06T16:50:13.413Z,9.32
2019-05-06T16:52:44.865Z,9.25
2019-05-06T16:55:17.646Z,9.26
2019-05-06T16:57:52.535Z,9.25
2019-05-06T17:00:22.790Z,9.17
2019-05-06T17:03:00.869Z,9.08
2019-05-06T17:05:44.390Z,9.10
2019-05-06T17:08:12.894Z,9.09
2019-05-06T17:10:43.303Z,9.05
2019-05-06T17:13:12.653Z,9.00
2019-05-06T17:15:41.244Z,9.02
2019-05-06T17:18:09.686Z,8.99
2019-05-06T17:20:38.134Z,8.96
2019-05-06T17:23:06.601Z,8.88
2019-05-06T17:25:35.044Z,8.85
2019-05-06T17:28:25.961Z,8.87
2019-05-06T17:31:03.866Z,8.94
2019-05-06T17:33:37.397Z,8.94
2019-05-06T17:36:06.999Z,8.94
2019-05-06T17:38:41.911Z,8.94
2019-05-06T17:41:12.308Z,8.91
2019-05-06T17:43:41.386Z,8.77
2019-05-06T17:46:12.672Z,8.78
2019-05-06T17:48:52.842Z,8.76
2019-05-06T17:51:25.406Z,8.78
2019-05-06T17:53:54.305Z,8.70
2019-05-06T17:56:22.836Z,8.66
2019-05-06T17:58:53.179Z,8.62
2019-05-06T18:01:26.818Z,8.60
2019-05-06T18:03:55.305Z,8.57
2019-05-06T18:06:23.773Z,8.55
2019-05-06T18:08:52.878Z,8.59
2019-05-06T18:11:22.408Z,8.57
2019-05-06T18:13:52.150Z,8.60
2019-05-06T18:16:22.236Z,8.61
2019-05-06T18:18:52.351Z,8.60
2019-05-06T18:21:22.935Z,8.59
2019-05-06T18:23:52.275Z,8.56
2019-05-06T18:26:22.978Z,8.52
2019-05-06T18:28:52.700Z,8.52
2019-05-06T18:31:22.137Z,8.52
2019-05-06T18:33:52.811Z,8.48
2019-05-06T18:36:22.682Z,8.44
2019-05-06T18:38:52.590Z,8.44
2019-05-06T18:41:23.409Z,8.42
2019-05-06T18:43:53.547Z,8.43
2019-05-06T18:46:21.655Z,8.42
2019-05-06T18:48:52.455Z,8.40
2019-05-06T18:51:22.433Z,8.37
2019-05-06T18:53:52.408Z,8.34
2019-05-06T18:56:22.383Z,8.32
2019-05-06T18:58:52.989Z,8.24
2019-05-06T19:01:23.281Z,8.21
2019-05-06T19:03:58.808Z,8.21
2019-05-06T19:06:27.292Z,8.18
2019-05-06T19:09:07.345Z,8.14
2019-05-06T19:11:35.815Z,8.11
2019-05-06T19:14:04.254Z,8.09
2019-05-06T19:16:48.251Z,8.09
2019-05-06T19:19:05.864Z,8.08
2019-05-06T19:21:33.158Z,8.07
2019-05-06T19:24:02.830Z,8.15
2019-05-06T19:26:32.671Z,8.16
2019-05-06T19:29:04.379Z,8.09
2019-05-06T19:31:32.250Z,8.02
2019-05-06T19:34:03.187Z,8.02
2019-05-06T19:36:34.152Z,7.65
2019-05-06T19:39:02.268Z,8.01
2019-05-06T19:41:33.161Z,7.97
2019-05-06T19:44:02.211Z,7.98
2019-05-06T19:46:32.571Z,7.94
2019-05-06T19:49:01.824Z,7.93
2019-05-06T19:51:32.868Z,7.93
2019-05-06T19:54:02.245Z,7.91
2019-05-06T19:56:30.745Z,7.87
2019-05-06T19:58:59.532Z,7.83
2019-05-06T20:01:27.985Z,7.77
2019-05-06T20:03:56.476Z,7.76
2019-05-06T20:06:42.673Z,7.76
2019-05-06T20:09:45.560Z,7.74
2019-05-06T20:12:29.784Z,7.70
2019-05-06T20:15:17.311Z,7.69
2019-05-06T20:17:46.046Z,7.68
2019-05-06T20:20:14.513Z,7.66
2019-05-06T20:22:43.161Z,7.65
2019-05-06T20:25:12.513Z,7.66
2019-05-06T20:27:42.113Z,7.65
2019-05-06T20:30:10.849Z,7.67
2019-05-06T20:32:39.532Z,7.67
2019-05-06T20:35:08.098Z,7.70
2019-05-06T20:37:36.572Z,7.70
2019-05-06T20:40:05.272Z,7.73
2019-05-06T20:42:33.973Z,7.75
2019-05-06T20:45:02.453Z,7.72
2019-05-06T20:47:32.010Z,7.70
2019-05-06T20:50:02.334Z,7.67
2019-05-06T20:52:33.070Z,7.67
2019-05-06T20:55:02.894Z,7.64
2019-05-06T20:57:31.421Z,7.64
2019-05-06T20:59:59.905Z,7.65
2019-05-06T21:02:28.462Z,7.58
2019-05-06T21:04:56.928Z,7.49
2019-05-06T21:07:25.397Z,7.28
2019-05-06T21:09:53.870Z,7.17
2019-05-06T21:12:22.342Z,7.19
2019-05-06T21:14:50.797Z,7.18
2019-05-06T21:17:19.506Z,7.20
2019-05-06T21:19:47.988Z,7.23
2019-05-06T21:22:16.425Z,7.23
2019-05-06T21:24:44.908Z,7.21
2019-05-06T21:27:13.375Z,7.16
2019-05-06T21:29:42.190Z,7.16
2019-05-06T21:32:10.596Z,7.09
2019-05-06T21:34:39.080Z,7.01
2019-05-06T21:37:07.549Z,6.98
2019-05-06T21:39:36.028Z,6.90
2019-05-06T21:42:04.509Z,6.91
2019-05-06T21:44:33.009Z,6.94
2019-05-06T21:47:02.945Z,6.99
2019-05-06T21:49:32.671Z,6.99
2019-05-06T21:52:02.201Z,6.93
2019-05-06T21:54:32.729Z,6.85
2019-05-06T21:57:02.902Z,6.84
2019-05-06T21:59:31.882Z,6.84
2019-05-06T22:02:00.744Z,6.83
2019-05-06T22:04:29.201Z,6.80
2019-05-06T22:06:57.943Z,6.81
2019-05-06T22:09:26.410Z,6.79
2019-05-06T22:11:54.888Z,6.79
2019-05-06T22:14:23.378Z,6.79
2019-05-06T22:16:51.862Z,6.78
2019-05-06T22:19:20.360Z,6.79
2019-05-06T22:22:03.179Z,6.77
2019-05-06T22:24:47.892Z,6.74
2019-05-06T22:27:16.522Z,6.70
2019-05-06T22:29:45.006Z,6.69
2019-05-06T22:32:14.966Z,6.33
2019-05-06T22:34:43.583Z,6.69
2019-05-06T22:37:12.720Z,6.68
2019-05-06T22:39:43.495Z,6.69
2019-05-06T22:42:11.574Z,6.69
2019-05-06T22:44:40.049Z,6.70
2019-05-06T22:47:08.536Z,6.65
2019-05-06T22:49:37.242Z,6.64
2019-05-06T22:52:05.701Z,6.62
2019-05-06T22:54:34.198Z,6.61
2019-05-06T22:57:02.658Z,6.61
2019-05-06T22:59:32.980Z,6.60
2019-05-06T23:02:26.436Z,6.60
2019-05-06T23:04:57.565Z,6.55
2019-05-06T23:07:26.034Z,6.55
2019-05-06T23:09:54.504Z,6.48
2019-05-06T23:12:23.211Z,6.42
2019-05-06T23:14:52.800Z,6.42
2019-05-06T23:17:21.425Z,6.40
2019-05-06T23:19:49.898Z,6.37
2019-05-06T23:22:18.362Z,6.36
2019-05-06T23:24:46.848Z,6.36
2019-05-06T23:27:15.402Z,6.36
2019-05-06T23:29:45.049Z,6.38
2019-05-06T23:32:14.122Z,6.36
2019-05-06T23:34:43.228Z,6.32
2019-05-06T23:37:22.507Z,6.32
2019-05-06T23:40:34.414Z,6.29
2019-05-06T23:43:39.169Z,6.29
2019-05-06T23:46:44.049Z,6.23
2019-05-06T23:49:49.454Z,6.25
2019-05-06T23:52:54.550Z,6.23
2019-05-06T23:55:59.274Z,6.21
2019-05-06T23:58:26.600Z,6.17
